LIRZ/PEG METAR and TAF weather

Enter ICAO airport designator
Station Type Date Time Source
LIRZ METAR 2020/01/20 17:50 UTC NOAA

LIRZ 201750Z 01009KT 9999 SCT040 07/01 Q1037


Station Type Date Time Source
LIRZ Decoded METAR 2020/01/20 17:50 UTC NOAA

Perugia, Italy (LIRZ) 43-05N 012-30E 205M
Jan 20, 2020 - 12:50 PM EST / 2020.01.20 1750 UTC
Wind: from the N (010 degrees) at 10 MPH (9 KT):0
Visibility: greater than 7 mile(s):0
Sky conditions: partly cloudy
Temperature: 44 F (7 C)
Dew Point: 33 F (1 C)
Relative Humidity: 65%
Pressure (altimeter): 30.62 in. Hg (1037 hPa)
ob: LIRZ 201750Z 01009KT 9999 SCT040 07/01 Q1037
cycle: 18

Station Type Date Time Source
LIRZ TAF 2020/01/20 18:21 UTC NOAA

TAF LIRZ 201700Z 2018/2118 02015KT CAVOK

Example: see airport list